Time;durP1;ratioP1;P1;durP2;ratioP2;P2;SDS_P1;SDS_P2;PMS_P1;PMS_P2;Temp;Humidity;BMP_temperature;BMP_pressure;BME280_temperature;BME280_humidity;BME280_pressure;Samples;Min_cycle;Max_cycle;Signal;HPM_P1;HPM_P2
2021/10/28 00:14:44;;;;;;;7.37;4.63;;;7.20;1.00;;;;;;5055345;28;20429;-76
2021/10/28 00:17:12;;;;;;;15.97;5.33;;;7.10;1.00;;;;;;5055491;28;20528;-77
2021/10/28 00:19:42;;;;;;;8.17;4.50;;;7.10;1.00;;;;;;5044154;28;20448;-77
2021/10/28 00:22:10;;;;;;;4.90;4.33;;;7.10;1.00;;;;;;5060209;28;20457;-77
2021/10/28 00:24:53;;;;;;;4.63;4.13;;;7.10;1.00;;;;;;5056643;28;20429;-77
2021/10/28 00:27:18;;;;;;;9.67;4.70;;;7.00;1.00;;;;;;5068375;28;20421;-77
2021/10/28 00:29:47;;;;;;;5.30;3.27;;;7.00;1.00;;;;;;5050953;28;20429;-77
2021/10/28 00:32:13;;;;;;;7.43;4.23;;;7.00;1.00;;;;;;5037482;28;20216;-77
2021/10/28 00:34:39;;;;;;;5.80;4.00;;;6.90;1.00;;;;;;5054143;28;20445;-75
2021/10/28 00:37:05;;;;;;;7.37;4.50;;;6.90;1.00;;;;;;5046920;28;20238;-75
2021/10/28 00:39:31;;;;;;;5.40;4.20;;;6.90;1.00;;;;;;5033545;28;20784;-75
2021/10/28 00:41:57;;;;;;;8.70;4.40;;;6.90;1.00;;;;;;5039799;28;20471;-75
2021/10/28 00:44:23;;;;;;;10.93;4.73;;;6.90;1.00;;;;;;5053300;28;20183;-75
2021/10/28 00:46:49;;;;;;;8.97;4.80;;;6.90;1.00;;;;;;5042153;28;20929;-75
2021/10/28 00:49:23;;;;;;;9.17;4.57;;;6.90;1.00;;;;;;5057743;28;20434;-77
2021/10/28 00:51:49;;;;;;;5.80;4.50;;;;;;;;;;5053156;28;20935;-77
2021/10/28 00:54:18;;;;;;;9.67;5.07;;;6.80;1.00;;;;;;5054487;28;20425;-77
2021/10/28 00:57:00;;;;;;;11.90;5.50;;;6.80;1.00;;;;;;5065086;28;20434;-77
2021/10/28 00:59:47;;;;;;;10.67;4.87;;;6.80;1.00;;;;;;5057005;28;20908;-77
2021/10/28 01:02:14;;;;;;;7.27;5.30;;;6.80;1.00;;;;;;5040084;28;20411;-77
2021/10/28 01:04:40;;;;;;;5.63;4.13;;;6.80;1.00;;;;;;5056982;28;20444;-77
2021/10/28 01:07:11;;;;;;;7.80;5.00;;;6.80;1.00;;;;;;5037418;28;20422;-77
2021/10/28 01:09:37;;;;;;;8.00;5.30;;;6.70;1.00;;;;;;5051368;28;20413;-77
2021/10/28 01:12:03;;;;;;;6.20;4.83;;;6.70;1.00;;;;;;5044809;28;20480;-77
2021/10/28 01:14:44;;;;;;;9.47;4.90;;;6.70;1.00;;;;;;5056880;28;20191;-77
2021/10/28 01:17:12;;;;;;;5.93;4.70;;;6.70;1.00;;;;;;5056606;28;20418;-77
2021/10/28 01:19:41;;;;;;;6.87;4.53;;;6.70;1.00;;;;;;5055712;28;20417;-75
2021/10/28 01:22:07;;;;;;;8.10;4.60;;;6.70;1.00;;;;;;5056636;28;20507;-75
2021/10/28 01:24:33;;;;;;;6.07;4.90;;;6.60;1.00;;;;;;5042513;28;20464;-75
2021/10/28 01:27:08;;;;;;;6.17;4.67;;;6.60;1.00;;;;;;5052069;28;20434;-75
2021/10/28 01:29:35;;;;;;;14.93;5.40;;;6.60;1.00;;;;;;5049599;28;20191;-75
2021/10/28 01:32:05;;;;;;;12.00;5.30;;;6.60;1.00;;;;;;5052196;28;20498;-75
2021/10/28 01:34:40;;;;;;;9.30;5.90;;;6.60;1.00;;;;;;5046041;28;20893;-77
2021/10/28 01:37:07;;;;;;;10.57;5.37;;;;;;;;;;5047583;28;20431;-77
2021/10/28 01:39:35;;;;;;;7.90;4.80;;;6.60;1.00;;;;;;5043540;28;20425;-77
2021/10/28 01:42:11;;;;;;;8.43;5.43;;;6.60;1.00;;;;;;5043135;28;20867;-77
2021/10/28 01:44:53;;;;;;;11.00;5.70;;;6.60;1.00;;;;;;5052764;28;20437;-78
2021/10/28 01:47:19;;;;;;;9.67;4.90;;;6.60;1.00;;;;;;5067464;28;20877;-77
2021/10/28 01:49:53;;;;;;;8.90;5.00;;;6.60;1.00;;;;;;5047655;28;20425;-77
2021/10/28 01:52:19;;;;;;;19.90;6.10;;;6.60;1.00;;;;;;5069701;28;20203;-77
2021/10/28 01:54:45;;;;;;;8.50;4.90;;;6.60;1.00;;;;;;5055202;28;20445;-77
2021/10/28 01:57:41;;;;;;;9.03;5.20;;;6.60;1.00;;;;;;5069980;28;20188;-77
2021/10/28 02:00:15;;;;;;;9.30;5.33;;;6.60;1.00;;;;;;5056081;28;20176;-77
2021/10/28 02:02:42;;;;;;;7.53;4.77;;;6.50;1.00;;;;;;5056068;28;20501;-77
2021/10/28 02:05:12;;;;;;;9.17;4.87;;;6.50;1.00;;;;;;5054496;28;20979;-76
2021/10/28 02:07:42;;;;;;;10.70;5.67;;;6.50;1.00;;;;;;5071484;28;20777;-77
2021/10/28 02:10:12;;;;;;;8.40;5.33;;;6.40;1.00;;;;;;5059092;28;20413;-77
2021/10/28 02:12:39;;;;;;;13.37;6.40;;;6.50;1.00;;;;;;5058130;28;20482;-77
2021/10/28 02:15:12;;;;;;;9.17;5.40;;;6.40;1.00;;;;;;5048662;28;20441;-77
2021/10/28 02:17:59;;;;;;;4.97;3.97;;;6.40;1.00;;;;;;5055402;28;20463;-77
2021/10/28 02:20:29;;;;;;;9.20;5.67;;;6.40;1.00;;;;;;5045433;28;20480;-77
2021/10/28 02:23:16;;;;;;;5.93;4.47;;;6.40;1.00;;;;;;5054703;28;20428;-77
2021/10/28 02:25:47;;;;;;;10.90;5.37;;;6.40;1.00;;;;;;5044048;28;20427;-77
2021/10/28 02:28:23;;;;;;;14.07;5.63;;;6.40;1.00;;;;;;5050224;28;20567;-77
2021/10/28 02:30:53;;;;;;;12.63;4.73;;;6.40;1.00;;;;;;5055287;28;20505;-77
2021/10/28 02:33:19;;;;;;;5.90;4.80;;;6.30;1.00;;;;;;5075642;28;20468;-76
2021/10/28 02:35:44;;;;;;;20.17;6.10;;;6.30;1.00;;;;;;5058470;28;20790;-75
2021/10/28 02:38:10;;;;;;;10.83;5.77;;;6.30;1.00;;;;;;5054895;28;20168;-75
2021/10/28 02:40:36;;;;;;;15.63;5.50;;;6.30;1.00;;;;;;5056041;28;20184;-75
2021/10/28 02:43:17;;;;;;;8.57;5.53;;;6.30;1.00;;;;;;5042680;28;20438;-75
2021/10/28 02:45:47;;;;;;;9.93;5.23;;;6.40;1.00;;;;;;5054478;28;20461;-75
2021/10/28 02:48:13;;;;;;;9.23;4.87;;;6.30;1.00;;;;;;5055033;28;20428;-75
2021/10/28 02:50:53;;;;;;;9.90;4.97;;;6.30;1.00;;;;;;5055372;28;20800;-75
2021/10/28 02:53:29;;;;;;;8.40;5.00;;;6.30;1.00;;;;;;5055027;28;20210;-75
2021/10/28 02:55:55;;;;;;;9.30;5.23;;;6.30;1.00;;;;;;5053799;28;20414;-75
2021/10/28 02:58:23;;;;;;;10.30;5.53;;;6.30;1.00;;;;;;5055522;28;20410;-75
2021/10/28 03:00:49;;;;;;;9.00;5.43;;;6.30;1.00;;;;;;5049094;28;20252;-75
2021/10/28 03:03:15;;;;;;;6.40;4.50;;;6.30;1.00;;;;;;5049715;28;20471;-75
2021/10/28 03:05:41;;;;;;;9.43;5.30;;;6.40;1.00;;;;;;5054527;28;20423;-77
2021/10/28 03:08:17;;;;;;;9.50;5.33;;;6.30;1.00;;;;;;5055438;28;20672;-77
2021/10/28 03:10:47;;;;;;;6.40;4.60;;;6.20;1.00;;;;;;5071419;28;20648;-77
2021/10/28 03:13:17;;;;;;;5.83;4.60;;;;;;;;;;5069911;28;20522;-77
2021/10/28 03:15:54;;;;;;;8.20;5.83;;;6.20;1.00;;;;;;5044663;28;20476;-77
2021/10/28 03:26:48;;;;;;;10.73;5.23;;;6.10;1.00;;;;;;5036130;28;20460;-75
2021/10/28 03:29:14;;;;;;;15.37;7.30;;;6.10;1.00;;;;;;5052679;28;20414;-75
2021/10/28 03:31:40;;;;;;;8.10;5.00;;;6.20;1.00;;;;;;5064103;28;20214;-75
2021/10/28 03:34:06;;;;;;;10.70;6.37;;;;;;;;;;5053558;28;20187;-75
2021/10/28 03:39:51;;;;;;;13.20;5.83;;;6.20;1.00;;;;;;5038124;28;20419;-77
2021/10/28 04:17:23;;;;;;;8.60;5.23;;;6.20;1.00;;;;;;5049391;28;20480;-77
2021/10/28 04:31:11;;;;;;;10.03;5.93;;;6.20;1.00;;;;;;5048747;28;20418;-77
2021/10/28 04:33:42;;;;;;;14.23;6.80;;;6.20;1.00;;;;;;5037832;28;20558;-77
2021/10/28 04:36:10;;;;;;;12.60;6.53;;;6.10;1.00;;;;;;5057261;28;20429;-75
2021/10/28 04:38:36;;;;;;;17.70;6.83;;;6.10;1.00;;;;;;5057262;28;20450;-75
2021/10/28 04:41:02;;;;;;;15.77;7.93;;;6.10;1.00;;;;;;5053315;28;21008;-75
2021/10/28 04:43:28;;;;;;;12.13;6.23;;;6.10;1.00;;;;;;5045452;28;20227;-75
2021/10/28 04:45:59;;;;;;;29.23;6.60;;;6.10;1.00;;;;;;5046236;28;20228;-75
2021/10/28 04:48:25;;;;;;;10.90;6.80;;;6.10;1.00;;;;;;5057346;28;20183;-75
2021/10/28 04:50:51;;;;;;;11.80;7.13;;;6.00;1.00;;;;;;5041149;28;20413;-77
2021/10/28 04:53:17;;;;;;;15.97;6.73;;;6.00;1.00;;;;;;5058436;28;20237;-77
2021/10/28 04:55:54;;;;;;;10.23;6.10;;;6.00;1.00;;;;;;5070783;28;20421;-77
2021/10/28 04:58:20;;;;;;;10.80;6.40;;;6.10;1.00;;;;;;5063190;28;20429;-78
2021/10/28 05:00:46;;;;;;;9.90;7.20;;;;;;;;;;5065714;28;20945;-77
2021/10/28 05:03:12;;;;;;;12.23;6.33;;;6.00;1.00;;;;;;5053233;28;20878;-78
2021/10/28 05:05:37;;;;;;;15.27;7.33;;;6.10;1.00;;;;;;5057569;28;20464;-75
2021/10/28 05:08:03;;;;;;;10.33;7.30;;;6.10;1.00;;;;;;5056797;28;20179;-75
2021/10/28 05:10:31;;;;;;;13.83;7.73;;;;;;;;;;5056865;28;20511;-75
2021/10/28 05:12:57;;;;;;;13.97;8.17;;;6.10;1.00;;;;;;5045963;28;20512;-75
2021/10/28 05:15:23;;;;;;;15.03;8.50;;;6.10;1.00;;;;;;5051236;28;20446;-74
2021/10/28 05:17:49;;;;;;;13.40;7.93;;;6.20;1.00;;;;;;5059047;28;20426;-74
2021/10/28 05:20:18;;;;;;;15.60;9.03;;;6.20;1.00;;;;;;5055174;28;20428;-74
2021/10/28 05:22:43;;;;;;;18.37;8.40;;;6.20;1.00;;;;;;5050461;28;20203;-77
2021/10/28 05:25:09;;;;;;;16.77;9.00;;;6.20;1.00;;;;;;5047255;28;20432;-77
2021/10/28 05:27:35;;;;;;;10.93;7.30;;;6.20;1.00;;;;;;5069842;28;20187;-77
2021/10/28 05:30:05;;;;;;;17.20;8.30;;;6.20;1.00;;;;;;5054301;28;20550;-77
2021/10/28 05:32:31;;;;;;;14.47;8.50;;;6.20;1.00;;;;;;5045774;28;20461;-77
2021/10/28 05:34:59;;;;;;;18.03;8.63;;;6.20;1.00;;;;;;5049274;28;20436;-77
2021/10/28 05:37:29;;;;;;;19.20;9.60;;;6.10;1.00;;;;;;5054830;28;20432;-74
2021/10/28 05:39:59;;;;;;;14.97;8.60;;;6.10;1.00;;;;;;5058480;28;20460;-74
2021/10/28 05:42:25;;;;;;;14.87;8.57;;;6.10;1.00;;;;;;5053448;28;20519;-75
2021/10/28 05:44:51;;;;;;;25.30;9.23;;;6.10;1.00;;;;;;5043016;28;20512;-74
2021/10/28 05:47:17;;;;;;;14.83;7.83;;;;;;;;;;5056025;28;20413;-74
2021/10/28 05:49:47;;;;;;;17.63;9.13;;;6.00;1.00;;;;;;5065424;28;20673;-75
2021/10/28 05:52:13;;;;;;;15.13;8.43;;;6.00;1.00;;;;;;5065772;28;20982;-74
2021/10/28 05:54:39;;;;;;;16.50;9.13;;;6.00;1.00;;;;;;5052611;28;20410;-75
2021/10/28 05:57:05;;;;;;;16.47;8.97;;;5.90;1.00;;;;;;5052542;28;20909;-74
2021/10/28 05:59:31;;;;;;;16.30;8.90;;;5.90;1.00;;;;;;5054827;28;20426;-74
2021/10/28 06:01:57;;;;;;;33.73;8.57;;;5.90;1.00;;;;;;5055842;28;20769;-74
2021/10/28 06:04:23;;;;;;;15.07;8.93;;;;;;;;;;5055361;28;20210;-74
2021/10/28 06:06:53;;;;;;;15.90;9.00;;;5.90;1.00;;;;;;5061096;28;20198;-74
2021/10/28 06:09:23;;;;;;;16.47;9.53;;;5.90;1.00;;;;;;5062363;28;20414;-75
2021/10/28 06:11:49;;;;;;;23.10;9.10;;;5.90;1.00;;;;;;5070290;28;20563;-74
2021/10/28 06:14:22;;;;;;;17.70;8.93;;;5.90;1.00;;;;;;5052046;28;20525;-75
2021/10/28 06:16:53;;;;;;;17.47;9.47;;;5.90;1.00;;;;;;5057284;28;20458;-74
2021/10/28 06:19:20;;;;;;;19.73;8.70;;;;;;;;;;5041308;28;20430;-74
2021/10/28 06:21:47;;;;;;;14.03;8.17;;;5.90;1.00;;;;;;5051804;28;20480;-77
2021/10/28 06:24:17;;;;;;;21.80;10.00;;;5.90;1.00;;;;;;5050967;28;20746;-77
2021/10/28 06:26:47;;;;;;;19.53;9.07;;;5.90;1.00;;;;;;5055316;28;20975;-77
2021/10/28 06:29:29;;;;;;;16.53;8.77;;;6.00;1.00;;;;;;5066738;28;20409;-77
2021/10/28 06:32:17;;;;;;;17.40;9.43;;;6.00;1.00;;;;;;5035380;28;20469;-79
2021/10/28 06:34:46;;;;;;;20.33;11.33;;;6.10;1.00;;;;;;5053494;28;20422;-77
2021/10/28 06:37:23;;;;;;;23.30;9.30;;;6.20;1.00;;;;;;5046856;28;20477;-77
2021/10/28 06:39:53;;;;;;;27.23;9.50;;;6.30;1.00;;;;;;5062769;28;20502;-77
2021/10/28 06:42:23;;;;;;;12.20;8.00;;;6.40;1.00;;;;;;5044500;28;20426;-78
2021/10/28 06:44:54;;;;;;;19.00;9.53;;;6.50;1.00;;;;;;5053510;28;20480;-77
2021/10/28 06:47:20;;;;;;;15.60;8.20;;;6.50;1.00;;;;;;5059093;28;20424;-77
2021/10/28 06:49:46;;;;;;;16.90;9.00;;;6.70;1.00;;;;;;5065029;28;20448;-77
2021/10/28 06:52:13;;;;;;;16.80;9.53;;;6.80;1.00;;;;;;5040611;28;20953;-78
2021/10/28 06:54:48;;;;;;;16.13;10.37;;;6.90;1.00;;;;;;5056476;28;20422;-77
2021/10/28 07:02:37;;;;;;;23.37;10.97;;;7.20;1.00;;;;;;5054541;28;20179;-78
2021/10/28 07:05:29;;;;;;;20.77;10.20;;;7.30;1.00;;;;;;5050288;28;20429;-79
2021/10/28 07:07:55;;;;;;;17.87;9.73;;;7.30;1.00;;;;;;5054979;28;20403;-75
2021/10/28 07:10:25;;;;;;;33.70;11.17;;;7.40;1.00;;;;;;5053245;28;20433;-76
2021/10/28 07:12:54;;;;;;;23.07;10.23;;;;;;;;;;5060128;28;20215;-74
2021/10/28 08:15:00;;;;;;;30.93;15.00;;;9.00;1.00;;;;;;5053234;28;20845;-77
2021/10/28 08:20:30;;;;;;;27.03;14.50;;;9.50;1.00;;;;;;5041896;28;20405;-77
2021/10/28 08:23:13;;;;;;;27.23;14.37;;;9.70;1.00;;;;;;5048933;28;20442;-77
2021/10/28 08:31:06;;;;;;;31.80;15.00;;;10.40;1.00;;;;;;5049519;28;20453;-77
2021/10/28 08:33:32;;;;;;;23.27;13.20;;;10.50;1.00;;;;;;5045381;28;20517;-77
2021/10/28 08:38:44;;;;;;;25.93;12.97;;;10.70;1.00;;;;;;4999648;28;20439;-75
2021/10/28 08:41:11;;;;;;;21.07;12.10;;;10.80;1.00;;;;;;5002488;28;20451;-77
2021/10/28 08:43:42;;;;;;;19.87;11.20;;;10.90;1.00;;;;;;5010445;28;20196;-77
2021/10/28 08:46:12;;;;;;;18.00;10.40;;;;;;;;;;5022667;28;20926;-77
2021/10/28 08:48:42;;;;;;;18.17;9.87;;;;;;;;;;5021818;28;20475;-77
2021/10/28 09:29:18;;;;;;;18.30;11.03;;;11.10;1.00;;;;;;5075799;28;20434;-77
2021/10/28 09:31:57;;;;;;;19.97;10.70;;;11.20;1.00;;;;;;5053952;28;20435;-77
2021/10/28 09:48:46;;;;;;;27.57;12.60;;;11.50;1.00;;;;;;5053879;28;20769;-79
2021/10/28 09:51:16;;;;;;;26.63;12.67;;;11.40;1.00;;;;;;5049515;28;20947;-77
2021/10/28 09:59:51;;;;;;;29.70;13.37;;;11.30;1.00;;;;;;5054265;28;20442;-78
2021/10/28 10:02:38;;;;;;;28.07;13.40;;;11.10;1.00;;;;;;5050076;28;20827;-78
2021/10/28 10:05:26;;;;;;;22.67;11.57;;;11.20;1.00;;;;;;5045835;28;20400;-76
2021/10/28 10:07:58;;;;;;;29.63;13.50;;;11.20;1.00;;;;;;5053044;28;20512;-76
2021/10/28 10:10:28;;;;;;;26.80;13.07;;;11.20;1.00;;;;;;5051273;28;20508;-76
2021/10/28 10:12:56;;;;;;;26.20;12.77;;;11.20;1.00;;;;;;5060137;28;20465;-77
2021/10/28 10:15:22;;;;;;;28.73;13.90;;;;;;;;;;5051342;28;20429;-77
2021/10/28 10:17:53;;;;;;;26.40;12.70;;;11.20;1.00;;;;;;5074447;28;20902;-78
2021/10/28 10:20:27;;;;;;;23.37;12.60;;;11.20;1.00;;;;;;5074594;28;20905;-76
2021/10/28 10:23:16;;;;;;;24.83;13.10;;;11.30;1.00;;;;;;5057544;28;21007;-75
2021/10/28 10:29:52;;;;;;;23.30;12.50;;;11.50;1.00;;;;;;5054172;28;20445;-75
2021/10/28 11:58:58;;;;;;;18.07;9.37;;;10.70;1.00;;;;;;5051523;28;20503;-77
2021/10/28 12:44:15;;;;;;;20.90;10.93;;;11.70;1.00;;;;;;5007279;28;20427;-75
2021/10/28 13:48:26;;;;;;;26.17;10.90;;;12.00;1.00;;;;;;5019206;28;20414;-76
2021/10/28 14:21:42;;;;;;;19.50;10.60;;;11.70;1.00;;;;;;5052802;28;20429;-75
2021/10/28 14:27:20;;;;;;;22.03;10.43;;;11.80;1.00;;;;;;5054211;28;20785;-77
2021/10/28 15:00:47;;;;;;;20.80;10.00;;;12.20;1.00;;;;;;5033273;28;20433;-76
2021/10/28 15:03:17;;;;;;;18.97;9.43;;;12.10;1.00;;;;;;5043850;28;20418;-76
2021/10/28 15:29:21;;;;;;;19.13;8.93;;;11.90;1.00;;;;;;5054749;28;20384;-76
2021/10/28 15:37:01;;;;;;;22.33;11.13;;;11.80;1.00;;;;;;5036145;28;20435;-77
2021/10/28 16:22:55;;;;;;;19.27;9.30;;;11.30;1.00;;;;;;5057984;28;20783;-76
2021/10/28 16:25:29;;;;;;;21.97;9.90;;;11.30;1.00;;;;;;5052617;28;20425;-76
2021/10/28 16:27:59;;;;;;;19.97;9.93;;;11.30;1.00;;;;;;5058448;28;20789;-77
2021/10/28 16:30:29;;;;;;;24.10;10.40;;;11.30;1.00;;;;;;5055917;28;20464;-77
2021/10/28 16:32:55;;;;;;;17.80;9.17;;;11.20;1.00;;;;;;5033539;28;20501;-75
2021/10/28 16:35:30;;;;;;;21.40;9.20;;;11.30;1.00;;;;;;5038901;28;20462;-78
2021/10/28 16:37:57;;;;;;;32.23;10.73;;;;;;;;;;5041950;28;20186;-75
2021/10/28 16:40:24;;;;;;;17.10;9.90;;;11.20;1.00;;;;;;5039919;28;20422;-75
2021/10/28 16:42:53;;;;;;;19.87;9.30;;;11.20;1.00;;;;;;5042555;28;20827;-76
2021/10/28 16:45:23;;;;;;;23.50;11.17;;;11.10;1.00;;;;;;5045781;28;20891;-75
2021/10/28 16:47:49;;;;;;;16.83;9.33;;;11.10;1.00;;;;;;5063344;28;20424;-75
2021/10/28 16:50:15;;;;;;;24.03;11.03;;;11.10;1.00;;;;;;5052155;28;20520;-75
2021/10/28 16:52:41;;;;;;;35.43;12.70;;;11.10;1.00;;;;;;5053062;28;20236;-75
2021/10/28 16:55:07;;;;;;;26.60;12.90;;;11.10;1.00;;;;;;5053477;28;20461;-75
2021/10/28 16:57:44;;;;;;;18.67;10.40;;;11.00;1.00;;;;;;5045057;28;20416;-77
2021/10/28 17:00:12;;;;;;;32.83;12.97;;;11.00;1.00;;;;;;5053248;28;20448;-77
2021/10/28 17:02:38;;;;;;;25.47;12.57;;;11.00;1.00;;;;;;5064604;28;20449;-76
2021/10/28 17:05:05;;;;;;;22.90;10.80;;;11.00;1.00;;;;;;5057610;28;20454;-75
2021/10/28 17:07:31;;;;;;;22.57;11.50;;;10.90;1.00;;;;;;5047441;28;20171;-75
2021/10/28 17:09:59;;;;;;;24.77;12.93;;;10.90;1.00;;;;;;5040767;28;20515;-76
2021/10/28 17:12:24;;;;;;;23.13;11.40;;;10.90;1.00;;;;;;5048747;28;20450;-75
2021/10/28 17:14:50;;;;;;;27.13;11.57;;;10.90;1.00;;;;;;5049731;28;20799;-75
2021/10/28 17:17:16;;;;;;;24.33;10.33;;;10.90;1.00;;;;;;5047231;28;20512;-76
2021/10/28 17:19:45;;;;;;;26.80;11.50;;;10.90;1.00;;;;;;5069093;28;20504;-77
2021/10/28 17:22:18;;;;;;;30.07;12.00;;;10.90;1.00;;;;;;5061049;28;20642;-77
2021/10/28 17:24:49;;;;;;;23.80;12.00;;;10.80;1.00;;;;;;5052703;28;20422;-77
2021/10/28 17:27:18;;;;;;;25.00;12.10;;;10.80;1.00;;;;;;5052849;28;20534;-77
2021/10/28 17:29:47;;;;;;;18.40;10.70;;;10.80;1.00;;;;;;5059197;28;20782;-77
2021/10/28 17:32:30;;;;;;;28.83;12.30;;;10.80;1.00;;;;;;5049118;28;20446;-77
2021/10/28 17:34:57;;;;;;;26.73;12.43;;;10.80;1.00;;;;;;5054104;28;20439;-77
2021/10/28 17:37:23;;;;;;;25.17;11.93;;;10.80;1.00;;;;;;5050887;28;20433;-76
2021/10/28 17:39:49;;;;;;;27.27;11.43;;;10.80;1.00;;;;;;5050785;28;20422;-77
2021/10/28 17:42:16;;;;;;;36.70;11.63;;;10.80;1.00;;;;;;5073804;28;20425;-77
2021/10/28 17:44:50;;;;;;;22.97;11.83;;;10.70;1.00;;;;;;5068753;28;20183;-77
2021/10/28 17:47:17;;;;;;;25.97;11.73;;;10.70;1.00;;;;;;5048498;28;20470;-77
2021/10/28 17:49:48;;;;;;;26.23;13.33;;;10.70;1.00;;;;;;5050307;28;20424;-76
2021/10/28 17:52:18;;;;;;;29.13;11.53;;;10.70;1.00;;;;;;5041833;28;20516;-77
2021/10/28 17:54:45;;;;;;;37.03;11.43;;;10.70;1.00;;;;;;5069316;28;20427;-76
2021/10/28 17:57:13;;;;;;;30.43;12.57;;;10.70;1.00;;;;;;5054880;28;20423;-76
2021/10/28 17:59:42;;;;;;;21.53;10.80;;;10.70;1.00;;;;;;5068644;28;20414;-76
2021/10/28 18:02:10;;;;;;;21.33;11.20;;;10.70;1.00;;;;;;5043379;28;20398;-76
2021/10/28 18:04:43;;;;;;;23.50;11.47;;;10.60;1.00;;;;;;5056748;28;20509;-77
2021/10/28 18:07:11;;;;;;;24.27;11.73;;;10.60;1.00;;;;;;5067038;28;20397;-78
2021/10/28 18:09:48;;;;;;;22.57;11.03;;;10.60;1.00;;;;;;5055782;28;20367;-77
2021/10/28 18:12:14;;;;;;;25.37;11.80;;;10.60;1.00;;;;;;5055741;28;20414;-76
2021/10/28 18:14:41;;;;;;;26.90;11.50;;;10.50;1.00;;;;;;5055958;28;20430;-75
2021/10/28 18:17:08;;;;;;;19.00;10.33;;;10.50;1.00;;;;;;5055868;28;20431;-75
2021/10/28 18:19:34;;;;;;;24.37;11.00;;;10.50;1.00;;;;;;5066258;28;20407;-75
2021/10/28 18:22:00;;;;;;;21.17;11.60;;;10.50;1.00;;;;;;5058066;28;20828;-75
2021/10/28 18:24:26;;;;;;;19.40;10.20;;;10.50;1.00;;;;;;5055368;28;20505;-75
2021/10/28 18:27:00;;;;;;;21.87;10.63;;;10.40;1.00;;;;;;5054676;28;20445;-75
2021/10/28 18:29:26;;;;;;;23.47;10.73;;;10.40;1.00;;;;;;5072515;28;20427;-76
2021/10/28 18:32:29;;;;;;;24.23;11.37;;;10.40;1.00;;;;;;5060413;28;20468;-76
2021/10/28 18:34:59;;;;;;;26.47;10.77;;;10.40;1.00;;;;;;5049348;28;20439;-78
2021/10/28 18:37:30;;;;;;;20.90;10.23;;;10.40;1.00;;;;;;5046727;28;20500;-78
2021/10/28 18:39:55;;;;;;;30.53;10.97;;;10.40;1.00;;;;;;5042101;28;20489;-78
2021/10/28 18:42:21;;;;;;;17.53;10.27;;;10.40;1.00;;;;;;5050873;28;20912;-76
2021/10/28 18:44:47;;;;;;;23.90;11.40;;;;;;;;;;5063072;28;20197;-77
2021/10/28 18:47:15;;;;;;;22.93;10.90;;;10.20;1.00;;;;;;5054995;28;20456;-76
2021/10/28 18:49:44;;;;;;;20.63;10.10;;;10.10;1.00;;;;;;5067148;28;20412;-76
2021/10/28 18:52:11;;;;;;;25.20;11.60;;;9.90;1.00;;;;;;5056250;28;20490;-76
2021/10/28 18:54:41;;;;;;;29.93;12.40;;;9.80;1.00;;;;;;5059975;28;20548;-77
2021/10/28 18:57:12;;;;;;;24.30;10.90;;;9.70;1.00;;;;;;5037858;28;20473;-76
2021/10/28 18:59:40;;;;;;;21.63;10.20;;;9.60;1.00;;;;;;5060042;28;20422;-75
2021/10/28 19:02:07;;;;;;;30.70;11.20;;;9.50;1.00;;;;;;5055100;28;20398;-75
2021/10/28 19:04:34;;;;;;;20.10;10.43;;;9.30;1.00;;;;;;5040125;28;20406;-75
2021/10/28 19:07:00;;;;;;;23.10;11.03;;;9.20;1.00;;;;;;5054891;28;20390;-75
2021/10/28 19:09:26;;;;;;;25.30;10.60;;;9.10;1.00;;;;;;5068437;28;20781;-76
2021/10/28 19:12:00;;;;;;;27.50;10.80;;;9.00;1.00;;;;;;5054962;28;20390;-75
2021/10/28 19:14:27;;;;;;;28.37;12.10;;;8.80;1.00;;;;;;5051291;28;20188;-76
2021/10/28 19:16:54;;;;;;;20.13;10.80;;;8.70;1.00;;;;;;5054725;28;20402;-75
2021/10/28 19:19:20;;;;;;;21.53;10.80;;;8.60;1.00;;;;;;5055854;28;20892;-75
2021/10/28 19:21:47;;;;;;;21.33;10.93;;;8.50;1.00;;;;;;5065997;28;20418;-75
2021/10/28 19:24:13;;;;;;;21.17;10.40;;;8.40;1.00;;;;;;5055566;28;20525;-76
2021/10/28 19:26:41;;;;;;;14.83;9.07;;;8.30;1.00;;;;;;5045813;28;20933;-76
2021/10/28 19:29:09;;;;;;;18.53;9.50;;;8.20;1.00;;;;;;5053711;28;20865;-75
2021/10/28 19:31:43;;;;;;;21.43;9.60;;;8.10;1.00;;;;;;5053863;28;20460;-76
2021/10/28 19:34:12;;;;;;;18.40;10.33;;;8.00;1.00;;;;;;5046333;28;20473;-76
2021/10/28 19:36:56;;;;;;;22.47;11.47;;;8.00;1.00;;;;;;5058538;28;20453;-76
2021/10/28 19:39:45;;;;;;;28.00;11.20;;;7.90;1.00;;;;;;5042068;28;20418;-76
2021/10/28 19:45:24;;;;;;;18.47;9.27;;;7.70;1.00;;;;;;5017155;28;20416;-76
2021/10/28 19:47:55;;;;;;;24.17;11.90;;;7.60;1.00;;;;;;5012164;28;20943;-75
2021/10/28 19:50:21;;;;;;;28.00;10.03;;;7.60;1.00;;;;;;5018981;28;20411;-75
2021/10/28 19:52:47;;;;;;;25.50;11.47;;;7.50;1.00;;;;;;5021535;28;20462;-75
2021/10/28 19:55:14;;;;;;;25.03;12.60;;;7.50;1.00;;;;;;4997180;28;20188;-75
2021/10/28 19:57:43;;;;;;;22.17;10.10;;;7.50;1.00;;;;;;5013254;28;20814;-75
2021/10/28 20:21:46;;;;;;;27.90;11.87;;;7.00;1.00;;;;;;5032279;28;20401;-77
2021/10/28 20:24:12;;;;;;;27.63;11.40;;;7.00;1.00;;;;;;5063069;28;20508;-77
2021/10/28 20:26:38;;;;;;;23.50;10.70;;;;;;;;;;5049733;28;20184;-77
2021/10/28 20:29:12;;;;;;;22.07;10.93;;;7.00;1.00;;;;;;5067083;28;20409;-77
2021/10/28 20:31:38;;;;;;;31.43;11.40;;;6.90;1.00;;;;;;5063948;28;20420;-77
2021/10/28 20:39:20;;;;;;;28.27;12.90;;;6.80;1.00;;;;;;5052069;28;20408;-77
2021/10/28 20:41:46;;;;;;;24.93;11.07;;;6.70;1.00;;;;;;5053603;28;20410;-77
2021/10/28 20:44:17;;;;;;;32.30;11.53;;;6.70;1.00;;;;;;5073624;28;20439;-77
2021/10/28 20:46:44;;;;;;;29.03;12.07;;;;;;;;;;5051571;28;20432;-77
2021/10/28 20:49:17;;;;;;;28.03;12.83;;;6.60;1.00;;;;;;5053739;28;20724;-77
2021/10/28 20:52:06;;;;;;;23.33;11.80;;;6.60;1.00;;;;;;5067002;28;20746;-77
2021/10/28 20:54:36;;;;;;;26.57;11.77;;;6.60;1.00;;;;;;5065380;28;20413;-77
2021/10/28 20:57:06;;;;;;;26.90;12.37;;;6.50;1.00;;;;;;5034379;28;20741;-77
2021/10/28 20:59:41;;;;;;;25.77;11.70;;;6.50;1.00;;;;;;5046230;28;20410;-77
2021/10/28 21:02:07;;;;;;;26.20;11.83;;;6.50;1.00;;;;;;5040090;28;21001;-75
2021/10/28 21:04:33;;;;;;;26.47;11.60;;;;;;;;;;5050429;28;20501;-76
2021/10/28 21:06:59;;;;;;;37.83;12.80;;;6.40;1.00;;;;;;5041819;28;20184;-76
2021/10/28 21:09:30;;;;;;;29.40;13.10;;;6.40;1.00;;;;;;5065340;28;20907;-75
2021/10/28 21:12:00;;;;;;;25.80;10.57;;;6.20;1.00;;;;;;5055682;28;20163;-76
2021/10/28 21:14:29;;;;;;;26.13;11.50;;;6.30;1.00;;;;;;5054688;28;20810;-76
2021/10/28 21:16:55;;;;;;;22.07;10.80;;;6.30;1.00;;;;;;5057533;28;20438;-75
2021/10/28 21:19:21;;;;;;;23.27;10.90;;;6.20;1.00;;;;;;5056009;28;20442;-75
2021/10/28 21:22:13;;;;;;;22.07;11.23;;;6.20;1.00;;;;;;5066459;28;20179;-75
2021/10/28 21:25:12;;;;;;;22.77;11.67;;;6.20;1.00;;;;;;5056660;28;20210;-76
2021/10/28 21:27:43;;;;;;;28.30;13.27;;;6.10;1.00;;;;;;5054526;28;20793;-75
2021/10/28 21:30:11;;;;;;;26.50;11.30;;;6.10;1.00;;;;;;5056521;28;20426;-75
2021/10/28 21:32:53;;;;;;;28.03;10.93;;;6.10;1.00;;;;;;5044525;28;20880;-75
2021/10/28 21:35:42;;;;;;;22.73;10.77;;;6.10;1.00;;;;;;5056078;28;20414;-76
2021/10/28 21:38:07;;;;;;;30.50;12.50;;;6.10;1.00;;;;;;5050753;28;20518;-75
2021/10/28 21:40:34;;;;;;;23.33;11.87;;;6.00;1.00;;;;;;5051893;28;20803;-76
2021/10/28 21:43:06;;;;;;;27.23;12.20;;;6.00;1.00;;;;;;5065339;28;20202;-75
2021/10/28 21:45:39;;;;;;;26.77;13.10;;;6.00;1.00;;;;;;5056516;28;20430;-75
2021/10/28 21:48:06;;;;;;;26.57;12.10;;;6.00;1.00;;;;;;5056087;28;20448;-77
2021/10/28 21:50:34;;;;;;;33.07;13.83;;;5.90;1.00;;;;;;5062490;28;20445;-77
2021/10/28 21:53:10;;;;;;;24.80;12.70;;;5.90;1.00;;;;;;5062548;28;20457;-77
2021/10/28 21:58:15;;;;;;;23.80;11.47;;;5.90;1.00;;;;;;5056007;28;20900;-77
2021/10/28 22:25:54;;;;;;;30.27;13.60;;;5.70;1.00;;;;;;5019475;28;20502;-77
2021/10/28 22:28:20;;;;;;;36.77;14.90;;;5.70;1.00;;;;;;5023275;28;20435;-77
2021/10/28 22:30:47;;;;;;;26.17;13.40;;;5.70;1.00;;;;;;5020414;28;20422;-77
2021/10/28 22:33:14;;;;;;;33.03;13.47;;;;;;;;;;5023949;28;20909;-75
2021/10/28 22:35:50;;;;;;;32.90;13.00;;;5.70;1.00;;;;;;5027182;28;20851;-75
2021/10/28 22:38:19;;;;;;;28.43;12.90;;;5.70;1.00;;;;;;5006138;28;20535;-75
2021/10/28 22:40:48;;;;;;;33.07;16.70;;;5.70;1.00;;;;;;5001470;28;20433;-76
2021/10/28 22:43:17;;;;;;;31.77;13.90;;;5.70;1.00;;;;;;5017880;28;20419;-75
2021/10/28 22:45:48;;;;;;;25.03;13.40;;;5.60;1.00;;;;;;5037896;28;20432;-75
2021/10/28 22:48:24;;;;;;;26.50;11.80;;;5.60;1.00;;;;;;5047014;28;20435;-77
2021/10/28 22:51:11;;;;;;;22.80;13.87;;;5.60;1.00;;;;;;5055252;28;20977;-77
2021/10/28 22:53:48;;;;;;;28.00;12.00;;;5.60;1.00;;;;;;5055011;28;20465;-77
2021/10/28 22:56:18;;;;;;;22.17;13.13;;;5.50;1.00;;;;;;5054153;28;20758;-77
2021/10/28 22:59:03;;;;;;;36.27;15.67;;;5.50;1.00;;;;;;5054326;28;20471;-77
2021/10/28 23:01:45;;;;;;;39.50;16.23;;;5.40;1.00;;;;;;5056499;28;20797;-77
2021/10/28 23:04:29;;;;;;;33.53;16.40;;;5.40;1.00;;;;;;5057437;28;20779;-78
2021/10/28 23:12:49;;;;;;;27.17;13.77;;;5.30;1.00;;;;;;5062964;28;20463;-77